Time;durP1;ratioP1;P1;durP2;ratioP2;P2;SDS_P1;SDS_P2;PMS_P1;PMS_P2;Temp;Humidity;BMP_temperature;BMP_pressure;BME280_temperature;BME280_humidity;BME280_pressure;Samples;Min_cycle;Max_cycle;Signal;HPM_P1;HPM_P2
2022/10/28 00:04:21;;;;;;;9.43;1.67;;;;;;;5.20;86.80;102026.03;4925062;28;20110;-61
2022/10/28 00:07:10;;;;;;;4.00;1.50;;;;;;;5.15;86.66;102031.06;4885617;28;20044;-60
2022/10/28 00:10:03;;;;;;;5.78;1.40;;;;;;;5.17;87.07;102037.19;4936173;28;20073;-63
2022/10/28 00:12:59;;;;;;;7.47;1.98;;;;;;;5.16;87.25;102035.41;4928028;28;20057;-61
2022/10/28 00:15:43;;;;;;;5.32;1.38;;;;;;;5.14;86.70;102031.91;4944712;28;20056;-62
2022/10/28 00:21:44;;;;;;;5.25;1.23;;;;;;;5.09;86.14;102037.75;4892697;28;20092;-62
2022/10/28 00:24:37;;;;;;;6.68;1.30;;;;;;;5.07;85.35;102048.06;4927188;28;20044;-62
2022/10/28 00:27:28;;;;;;;11.20;1.88;;;;;;;5.06;85.28;102022.97;4909999;28;20090;-62
2022/10/28 00:30:14;;;;;;;10.70;1.50;;;;;;;5.06;85.62;102028.16;4905648;28;20061;-62
2022/10/28 00:32:58;;;;;;;5.38;1.13;;;;;;;5.04;85.52;102027.25;4922272;28;20071;-62
2022/10/28 00:35:44;;;;;;;6.15;1.00;;;;;;;5.07;85.48;102029.94;4871707;28;20052;-62
2022/10/28 00:38:39;;;;;;;3.45;1.17;;;;;;;5.07;84.66;102029.94;4915205;28;20052;-63
2022/10/28 00:41:24;;;;;;;5.43;1.23;;;;;;;5.09;85.42;102017.00;4871632;28;20052;-62
2022/10/28 00:44:02;;;;;;;4.22;1.38;;;;;;;5.09;85.14;102023.09;4904221;28;20626;-62
2022/10/28 00:47:00;;;;;;;10.95;1.35;;;;;;;5.17;84.49;102024.22;4908987;28;20082;-62
2022/10/28 00:52:54;;;;;;;7.30;1.52;;;;;;;4.86;84.52;101962.69;4854640;28;20058;-62
2022/10/28 00:55:30;;;;;;;5.47;1.33;;;;;;;5.04;85.40;102001.34;4866892;28;20058;-63
2022/10/28 01:03:59;;;;;;;10.48;1.88;;;;;;;5.21;84.77;102016.56;4836605;28;20042;-63
2022/10/28 01:06:45;;;;;;;8.38;1.55;;;;;;;5.23;84.64;102014.91;4827383;28;20495;-63
2022/10/28 01:09:31;;;;;;;11.70;1.50;;;;;;;5.02;84.28;101974.47;4805187;28;20047;-62
2022/10/28 01:12:28;;;;;;;7.30;1.45;;;;;;;5.24;84.20;102016.66;4832903;28;20082;-62
2022/10/28 01:15:24;;;;;;;5.75;1.50;;;;;;;5.27;84.70;102021.97;4808794;28;20035;-63
2022/10/28 01:18:09;;;;;;;8.18;1.05;;;;;;;5.27;84.28;102019.38;4819792;28;20251;-63
2022/10/28 01:21:20;;;;;;;7.90;1.40;;;;;;;5.23;83.37;102004.53;4813188;28;21076;-63
2022/10/28 01:24:19;;;;;;;6.78;1.55;;;;;;;5.21;84.71;102014.84;4837727;28;20058;-63
2022/10/28 01:27:20;;;;;;;7.03;1.85;;;;;;;5.22;85.02;102007.94;4816784;28;20117;-63
2022/10/28 01:30:31;;;;;;;5.63;1.30;;;;;;;5.24;84.56;102001.09;4757000;29;20388;-63
2022/10/28 01:33:33;;;;;;;8.10;1.60;;;;;;;5.24;84.82;102006.28;4770301;29;20352;-63
2022/10/28 01:36:22;;;;;;;6.97;1.80;;;;;;;4.48;85.31;101865.59;4772731;29;20193;-63
2022/10/28 01:39:14;;;;;;;4.15;1.38;;;;;;;5.28;85.20;101997.78;4760832;29;20138;-63
2022/10/28 01:41:52;;;;;;;3.60;1.40;;;;;;;5.31;84.38;102003.06;4747981;29;20071;-62
2022/10/28 01:45:04;;;;;;;2.72;0.85;;;;;;;5.37;83.82;101998.09;4765008;29;20052;-63
2022/10/28 01:48:03;;;;;;;9.18;2.22;;;;;;;5.36;84.58;101996.31;4721683;29;20044;-63
2022/10/28 01:51:00;;;;;;;6.57;1.08;;;;;;;5.36;84.45;101988.53;4776745;28;20222;-63
2022/10/28 01:54:00;;;;;;;4.18;1.20;;;;;;;5.29;83.39;101974.53;4808296;28;20087;-61
2022/10/28 01:59:57;;;;;;;7.30;1.27;;;;;;;4.99;83.85;101927.72;4784681;27;5221804;-88
2022/10/28 02:02:35;;;;;;;7.05;1.60;;;;;;;4.53;83.27;101843.34;4972877;27;20100;-86
2022/10/28 02:06:01;;;;;;;;;;;;;;;;;;;;;
2022/10/28 02:09:07;;;;;;;5.70;0.88;;;;;;;4.42;83.22;101826.56;4836983;28;20049;-91
2022/10/28 02:12:12;;;;;;;8.38;1.40;;;;;;;4.93;83.35;101901.63;4927378;28;20067;-91
2022/10/28 02:15:13;;;;;;;8.57;1.23;;;;;;;4.98;83.39;101921.66;4933683;27;20073;-83
2022/10/28 02:17:59;;;;;;;5.50;0.90;;;;;;;4.92;83.46;101911.13;4946068;27;20038;-82
2022/10/28 02:20:41;;;;;;;6.90;1.02;;;;;;;4.40;83.99;101820.47;4944332;28;20101;-83
2022/10/28 02:23:23;;;;;;;2.67;1.17;;;;;;;5.06;83.70;101934.00;4967632;27;20754;-84
2022/10/28 02:25:59;;;;;;;5.22;1.25;;;;;;;5.32;83.22;101968.56;4974813;27;20054;-84
2022/10/28 02:28:40;;;;;;;5.15;1.20;;;;;;;5.29;83.02;101983.97;4980194;27;20043;-84
2022/10/28 02:31:25;;;;;;;3.50;0.90;;;;;;;4.40;83.53;101815.28;4964806;27;20051;-84
2022/10/28 02:34:01;;;;;;;9.13;2.25;;;;;;;5.08;85.48;101917.66;4972849;27;20063;-84
2022/10/28 02:36:38;;;;;;;7.93;2.20;;;;;;;5.05;87.34;101929.66;4947763;27;24784;-84
2022/10/28 02:39:09;;;;;;;7.88;1.70;;;;;;;4.69;88.00;101892.22;4947710;27;20048;-84
2022/10/28 02:41:47;;;;;;;8.93;1.40;;;;;;;4.76;86.44;101876.03;4971406;27;20055;-84
2022/10/28 02:44:24;;;;;;;4.68;1.10;;;;;;;4.65;85.55;101861.88;4962539;27;20071;-84
2022/10/28 02:46:58;;;;;;;2.35;0.88;;;;;;;5.15;84.70;101944.69;4955525;27;20051;-84
2022/10/28 02:49:36;;;;;;;4.80;1.40;;;;;;;4.78;87.94;101870.06;4972834;27;20107;-84
2022/10/28 02:52:09;;;;;;;5.28;1.80;;;;;;;5.03;89.26;101955.50;4963896;27;20065;-83
2022/10/28 02:54:46;;;;;;;4.97;1.40;;;;;;;4.95;89.68;101946.59;4979497;27;20115;-83
2022/10/28 02:57:20;;;;;;;8.82;2.25;;;;;;;4.21;90.99;101825.00;4970457;27;20051;-83
2022/10/28 02:59:56;;;;;;;8.40;1.73;;;;;;;4.63;91.79;101914.44;4971552;27;20047;-83
2022/10/28 03:02:28;;;;;;;14.88;2.60;;;;;;;4.44;92.40;101885.34;4966307;27;20053;-83
2022/10/28 03:05:01;;;;;;;11.27;2.25;;;;;;;4.67;93.12;101935.31;4959229;27;20071;-84
2022/10/28 03:07:35;;;;;;;13.35;2.70;;;;;;;4.25;92.32;101845.00;4956243;27;20057;-85
2022/10/28 03:10:08;;;;;;;17.10;2.75;;;;;;;4.59;93.72;101916.03;4951242;27;20123;-84
2022/10/28 03:12:39;;;;;;;12.20;2.42;;;;;;;4.52;94.19;101908.91;4964926;28;20043;-85
2022/10/28 03:15:11;;;;;;;12.10;2.63;;;;;;;4.56;93.64;101920.22;4964653;28;20062;-85
2022/10/28 03:17:42;;;;;;;12.27;3.20;;;;;;;4.50;94.26;101900.19;4961798;27;20052;-83
2022/10/28 03:20:15;;;;;;;11.85;3.08;;;;;;;4.45;95.19;101906.91;4958809;28;20060;-84
2022/10/28 03:22:50;;;;;;;9.07;2.33;;;;;;;4.02;95.42;101836.44;4963214;27;20039;-85
2022/10/28 03:25:21;;;;;;;8.80;2.13;;;;;;;3.96;95.59;101806.88;4963393;28;20111;-86
2022/10/28 03:27:52;;;;;;;12.85;2.30;;;;;;;3.78;95.76;101802.81;4958373;28;20043;-85
2022/10/28 03:30:23;;;;;;;10.32;2.83;;;;;;;3.79;95.39;101778.69;4955655;28;20046;-86
2022/10/28 03:32:56;;;;;;;10.35;2.00;;;;;;;4.43;95.17;101882.69;4969070;28;20076;-86
2022/10/28 03:35:33;;;;;;;5.70;1.50;;;;;;;4.30;94.85;101840.84;4956638;28;20056;-88
2022/10/28 03:38:04;;;;;;;9.15;1.92;;;;;;;4.61;94.29;101901.44;4935351;28;20045;-87
2022/10/28 03:40:38;;;;;;;8.27;1.80;;;;;;;4.67;94.12;101899.06;4960478;28;20247;-87
2022/10/28 03:43:08;;;;;;;8.90;2.08;;;;;;;4.24;94.49;101809.59;4954552;28;20354;-85
2022/10/28 03:45:40;;;;;;;11.35;2.70;;;;;;;4.72;93.74;101883.69;4963915;28;20085;-85
2022/10/28 03:54:32;;;;;;;9.75;2.03;;;;;;;4.37;92.34;101789.28;4860347;28;20045;-87
2022/10/28 03:57:06;;;;;;;8.25;1.88;;;;;;;4.41;92.08;101814.47;4877876;28;20061;-87
2022/10/28 03:59:44;;;;;;;6.47;1.75;;;;;;;5.04;91.29;101891.59;4881223;28;20057;-88
2022/10/28 04:02:23;;;;;;;13.57;2.50;;;;;;;5.02;91.49;101886.41;4854531;28;20043;-88
2022/10/28 04:05:17;;;;;;;3.33;1.23;;;;;;;4.40;91.69;101804.94;4834040;28;20254;-87
2022/10/28 04:07:50;;;;;;;8.57;1.77;;;;;;;4.11;92.52;101747.91;4865120;28;20313;-87
2022/10/28 04:10:26;;;;;;;7.90;1.20;;;;;;;4.86;91.66;101853.03;4884664;28;20043;-86
2022/10/28 04:13:07;;;;;;;3.63;0.95;;;;;;;5.06;89.77;101877.88;4871542;28;20058;-87
2022/10/28 04:15:40;;;;;;;5.68;1.10;;;;;;;5.12;89.86;101878.09;4841281;28;20365;-86
2022/10/28 04:18:16;;;;;;;4.22;1.02;;;;;;;4.40;88.15;101742.84;4860781;28;20056;-86
2022/10/28 04:21:00;;;;;;;11.35;2.67;;;;;;;5.22;90.18;101896.50;4875609;28;20125;-87
2022/10/28 04:23:39;;;;;;;14.27;2.67;;;;;;;4.70;90.83;101795.59;4886421;28;20119;-86
2022/10/28 04:26:13;;;;;;;6.93;1.35;;;;;;;5.25;90.60;101866.41;4909850;28;20033;-86
2022/10/28 04:28:51;;;;;;;6.75;1.48;;;;;;;4.45;90.30;101767.16;4897152;28;20069;-85
2022/10/28 04:39:16;;;;;;;7.25;1.00;;;;;;;4.40;88.50;101727.31;4751119;29;21074;-86
2022/10/28 05:28:52;;;;;;;12.10;2.17;;;;;;;4.24;94.67;101769.88;4579779;30;20188;-90
2022/10/28 05:31:25;;;;;;;10.13;2.28;;;;;;;4.49;94.69;101800.06;4657987;29;20377;-88
2022/10/28 05:34:13;;;;;;;14.73;2.72;;;;;;;4.72;94.55;101840.53;4665511;29;20473;-89
2022/10/28 05:36:49;;;;;;;10.63;3.03;;;;;;;4.13;95.14;101748.84;4655686;29;20070;-89
2022/10/28 05:39:21;;;;;;;9.27;2.15;;;;;;;4.25;95.69;101749.25;4652699;29;20316;-89
2022/10/28 05:41:56;;;;;;;11.63;2.20;;;;;;;4.21;95.38;101757.72;4671684;29;21802;-89
2022/10/28 05:44:29;;;;;;;12.98;2.90;;;;;;;4.72;95.64;101835.34;4693538;29;20095;-88
2022/10/28 05:47:05;;;;;;;14.25;2.55;;;;;;;4.04;95.21;101733.00;4664657;29;20074;-89
2022/10/28 05:49:38;;;;;;;9.70;2.15;;;;;;;4.43;95.52;101776.56;4706823;29;20053;-90
2022/10/28 05:52:13;;;;;;;16.67;2.90;;;;;;;4.95;95.92;101874.06;4726309;29;20073;-90
2022/10/28 05:54:49;;;;;;;11.07;2.58;;;;;;;4.72;96.36;101853.50;4745669;29;20052;-88
2022/10/28 05:57:21;;;;;;;12.98;3.00;;;;;;;4.70;96.53;101852.56;4794850;28;20106;-89
2022/10/28 05:59:57;;;;;;;12.90;2.13;;;;;;;4.38;96.20;101776.41;4840433;28;20736;-90
2022/10/28 06:03:13;;;;;;;17.65;3.20;;;;;;;4.38;96.26;101791.06;4879704;28;20235;-89
2022/10/28 06:06:31;;;;;;;;;;;;;;;;;;;;;
2022/10/28 06:09:21;;;;;;;15.10;3.25;;;;;;;4.61;95.66;101826.34;4933158;28;20045;-90
2022/10/28 06:11:55;;;;;;;12.75;2.92;;;;;;;4.57;95.73;101814.16;4948089;28;20782;-90
2022/10/28 06:14:26;;;;;;;15.57;2.38;;;;;;;4.96;96.01;101899.13;4943383;28;20046;-91
2022/10/28 06:17:01;;;;;;;14.40;2.63;;;;;;;4.95;95.57;101868.91;4933221;28;20044;-92
2022/10/28 06:19:37;;;;;;;20.33;3.15;;;;;;;4.90;96.16;101870.47;4957113;28;20056;-91
2022/10/28 06:22:10;;;;;;;17.23;2.42;;;;;;;3.82;96.16;101696.09;4938557;28;20052;-91
2022/10/28 06:24:41;;;;;;;11.27;2.70;;;;;;;4.76;96.48;101841.50;4949133;28;20048;-93
2022/10/28 06:27:18;;;;;;;12.02;2.00;;;;;;;4.95;95.67;101872.34;4957676;28;20093;-90
2022/10/28 06:29:51;;;;;;;8.38;2.42;;;;;;;4.40;95.32;101810.13;4940976;28;20050;-90
2022/10/28 06:32:33;;;;;;;13.05;3.33;;;;;;;4.76;95.31;101847.56;4943823;28;22069;-90
2022/10/28 06:35:24;;;;;;;16.75;3.90;;;;;;;4.38;95.93;101785.88;4912964;28;20040;-88
2022/10/28 06:37:56;;;;;;;16.48;4.78;;;;;;;4.00;96.07;101715.63;4905750;28;20120;-90
2022/10/28 06:40:28;;;;;;;19.80;4.57;;;;;;;4.53;96.27;101801.91;4925775;28;20044;-88
2022/10/28 06:43:02;;;;;;;12.93;3.17;;;;;;;4.88;96.19;101866.94;4919896;28;20077;-88
2022/10/28 06:45:36;;;;;;;13.07;2.75;;;;;;;4.36;95.93;101772.00;4935298;28;20071;-89
2022/10/28 06:48:11;;;;;;;14.43;3.28;;;;;;;4.92;96.32;101903.34;4928600;28;20547;-89
2022/10/28 06:50:42;;;;;;;12.75;3.20;;;;;;;4.81;96.18;101867.56;4928243;28;20045;-89
2022/10/28 06:53:17;;;;;;;15.40;3.40;;;;;;;4.71;96.78;101849.13;4941914;28;20045;-89
2022/10/28 06:55:54;;;;;;;16.08;3.72;;;;;;;4.79;96.78;101856.25;4933355;28;20048;-86
2022/10/28 06:58:26;;;;;;;14.13;3.03;;;;;;;4.82;97.21;101877.06;4939417;28;20093;-85
2022/10/28 07:00:57;;;;;;;14.63;3.45;;;;;;;4.22;97.82;101779.31;4965401;27;20051;-83
2022/10/28 07:03:31;;;;;;;17.40;3.50;;;;;;;4.32;97.89;101808.16;4966356;27;20092;-85
2022/10/28 07:06:03;;;;;;;17.25;4.65;;;;;;;4.58;98.28;101841.78;4960660;27;20349;-85
2022/10/28 07:08:34;;;;;;;17.70;4.10;;;;;;;4.17;98.19;101786.94;4932355;28;20058;-84
2022/10/28 07:11:07;;;;;;;23.65;7.60;;;;;;;4.38;98.33;101814.34;4949611;28;21079;-86
2022/10/28 07:13:39;;;;;;;19.02;4.63;;;;;;;4.64;98.43;101844.59;4966492;28;20043;-86
2022/10/28 07:16:24;;;;;;;13.93;3.42;;;;;;;4.68;98.60;101833.50;4964137;28;20064;-88
2022/10/28 07:18:58;;;;;;;32.50;6.05;;;;;;;4.78;98.57;101850.22;4945894;28;20058;-86
2022/10/28 07:21:31;;;;;;;18.13;4.18;;;;;;;4.82;98.42;101864.13;4954966;28;20392;-87
2022/10/28 07:24:04;;;;;;;18.08;3.35;;;;;;;4.53;98.61;101812.28;4959787;28;20047;-87
2022/10/28 07:26:35;;;;;;;19.60;4.13;;;;;;;4.91;98.47;101867.03;4958386;27;20047;-85
2022/10/28 07:29:10;;;;;;;15.60;3.65;;;;;;;4.13;98.42;101754.00;4975248;28;20058;-88
2022/10/28 07:31:44;;;;;;;24.60;4.00;;;;;;;4.95;99.01;101879.25;4937226;28;20119;-85
2022/10/28 07:34:36;;;;;;;22.73;4.68;;;;;;;5.07;99.34;101874.47;4944060;27;20326;-87
2022/10/28 07:37:09;;;;;;;17.05;3.42;;;;;;;5.01;98.63;101866.47;4948745;27;20048;-87
2022/10/28 07:39:51;;;;;;;14.52;2.90;;;;;;;4.53;98.75;101817.44;4952395;28;20277;-86
2022/10/28 07:42:22;;;;;;;18.42;3.65;;;;;;;4.43;99.17;101779.16;4941289;28;20281;-86
2022/10/28 07:44:54;;;;;;;23.75;3.97;;;;;;;4.56;99.17;101822.72;4953606;27;20128;-85
2022/10/28 07:47:25;;;;;;;20.50;4.00;;;;;;;4.64;99.15;101816.13;4962381;28;20066;-88
2022/10/28 07:49:58;;;;;;;19.17;4.40;;;;;;;4.17;99.16;101761.06;4962708;27;20047;-87
2022/10/28 07:52:29;;;;;;;16.45;4.00;;;;;;;3.92;99.92;101742.94;4955441;28;20048;-86
2022/10/28 07:55:00;;;;;;;25.35;3.80;;;;;;;4.68;100.00;101864.56;4963683;27;20054;-85
2022/10/28 07:57:36;;;;;;;18.17;3.95;;;;;;;4.36;100.00;101808.25;4963828;28;20243;-87
2022/10/28 08:00:08;;;;;;;15.75;3.10;;;;;;;4.30;100.00;101804.63;4952526;28;20062;-87
2022/10/28 08:02:41;;;;;;;10.30;3.20;;;;;;;4.41;100.00;101809.28;4961648;28;20081;-87
2022/10/28 08:05:15;;;;;;;17.60;3.75;;;;;;;4.42;100.00;101803.25;4959429;27;20118;-88
2022/10/28 08:07:47;;;;;;;17.65;3.83;;;;;;;4.22;100.00;101749.16;4963237;27;20054;-86
2022/10/28 08:10:23;;;;;;;8.20;2.83;;;;;;;5.01;100.00;101878.56;4950278;27;20056;-86
2022/10/28 08:12:59;;;;;;;19.50;3.30;;;;;;;5.04;100.00;101857.94;4958812;28;20720;-87
2022/10/28 08:15:47;;;;;;;22.58;4.20;;;;;;;5.09;99.93;101878.00;4951600;27;20051;-88
2022/10/28 08:18:18;;;;;;;14.75;3.35;;;;;;;5.02;99.89;101844.94;4950739;28;20096;-89
2022/10/28 08:20:51;;;;;;;14.43;2.42;;;;;;;5.01;98.63;101838.00;4959257;27;20377;-88
2022/10/28 08:23:23;;;;;;;12.05;2.53;;;;;;;5.24;98.77;101863.75;4961174;27;21457;-82
2022/10/28 08:25:54;;;;;;;12.30;3.22;;;;;;;5.30;98.18;101866.53;4956280;28;20100;-84
2022/10/28 08:28:26;;;;;;;10.75;2.80;;;;;;;5.33;97.88;101877.00;4959569;27;20052;-85
2022/10/28 08:31:03;;;;;;;11.32;2.88;;;;;;;5.02;97.64;101811.28;4962402;27;20114;-84
2022/10/28 08:33:39;;;;;;;7.95;2.60;;;;;;;4.70;96.53;101748.97;4950869;28;20059;-83
2022/10/28 08:36:14;;;;;;;15.63;2.58;;;;;;;4.54;96.39;101732.09;4957841;28;20044;-85
2022/10/28 08:38:46;;;;;;;9.63;1.95;;;;;;;4.56;96.58;101760.59;4938998;28;20119;-84
2022/10/28 08:41:31;;;;;;;9.55;2.30;;;;;;;5.04;96.96;101817.38;4953460;28;20097;-85
2022/10/28 08:44:35;;;;;;;10.60;2.42;;;;;;;5.24;96.45;101858.56;4930885;28;20060;-85
2022/10/28 08:47:17;;;;;;;8.27;2.45;;;;;;;5.19;96.63;101853.22;4928671;27;20058;-85
2022/10/28 08:49:53;;;;;;;9.75;2.42;;;;;;;4.67;97.04;101764.41;4949923;28;20071;-86
2022/10/28 08:52:32;;;;;;;10.18;2.22;;;;;;;4.54;97.20;101757.97;4956821;28;20359;-81
2022/10/28 08:55:08;;;;;;;5.95;2.05;;;;;;;5.19;97.04;101846.34;4950984;27;20108;-83
2022/10/28 08:57:43;;;;;;;7.22;2.70;;;;;;;4.83;97.25;101785.63;4956095;27;20070;-85
2022/10/28 09:00:21;;;;;;;9.88;3.25;;;;;;;5.03;97.50;101813.00;4942125;28;20168;-84
2022/10/28 09:03:06;;;;;;;13.65;3.42;;;;;;;5.27;97.38;101835.34;4960431;28;20119;-85
2022/10/28 09:05:39;;;;;;;16.55;3.80;;;;;;;4.79;97.51;101755.25;4946403;28;20101;-87
2022/10/28 09:08:23;;;;;;;13.23;3.63;;;;;;;4.67;97.31;101738.53;4957653;28;20048;-86
2022/10/28 09:11:20;;;;;;;15.80;3.33;;;;;;;5.19;97.31;101810.06;4944623;28;20273;-85
2022/10/28 09:14:20;;;;;;;13.25;3.50;;;;;;;4.97;97.28;101805.06;4937635;28;20151;-87
2022/10/28 09:17:10;;;;;;;11.27;3.65;;;;;;;4.95;97.77;101791.19;4921655;28;20045;-85
2022/10/28 09:19:50;;;;;;;9.60;2.95;;;;;;;5.44;97.74;101839.28;4942571;27;20093;-87
2022/10/28 09:22:25;;;;;;;10.63;2.78;;;;;;;5.39;97.71;101846.97;4950961;28;20077;-85
2022/10/28 09:25:02;;;;;;;10.20;3.00;;;;;;;4.60;97.80;101746.94;4941231;28;20080;-84
2022/10/28 09:27:53;;;;;;;12.65;3.10;;;;;;;4.75;98.44;101757.75;4946670;28;20044;-85
2022/10/28 09:30:37;;;;;;;10.68;2.88;;;;;;;4.89;98.93;101780.63;4933715;28;20052;-89
2022/10/28 09:33:49;;;;;;;14.57;3.30;;;;;;;5.33;98.97;101841.56;4914416;28;20048;-80
2022/10/28 09:36:27;;;;;;;8.07;2.65;;;;;;;4.76;99.09;101750.88;4936477;28;20340;-86
2022/10/28 09:39:02;;;;;;;8.18;1.90;;;;;;;5.33;99.39;101843.28;4938810;28;20059;-86
2022/10/28 09:41:41;;;;;;;6.25;1.92;;;;;;;5.16;98.91;101812.53;4957572;28;20100;-82
2022/10/28 09:44:19;;;;;;;6.72;2.25;;;;;;;5.05;98.92;101794.94;4956913;28;20240;-82
2022/10/28 09:47:00;;;;;;;7.50;2.20;;;;;;;5.32;98.71;101802.69;4925587;28;20057;-83
2022/10/28 09:49:38;;;;;;;10.40;3.58;;;;;;;4.61;98.50;101702.06;4923885;28;20048;-84
2022/10/28 09:52:20;;;;;;;13.30;3.45;;;;;;;5.30;98.45;101820.75;4938247;28;20120;-84
2022/10/28 09:56:09;;;;;;;8.35;2.20;;;;;;;5.33;98.83;101825.16;4958833;28;20111;-85
2022/10/28 09:58:48;;;;;;;8.38;2.58;;;;;;;4.85;98.87;101738.22;4925502;28;20113;-83
2022/10/28 10:01:19;;;;;;;3.25;1.75;;;;;;;5.40;98.46;101827.09;4961352;28;20306;-83
2022/10/28 10:03:55;;;;;;;8.07;2.08;;;;;;;5.34;98.37;101806.16;4957997;28;20039;-85
2022/10/28 10:06:29;;;;;;;4.53;2.00;;;;;;;5.06;98.43;101766.47;4946270;28;20396;-87
2022/10/28 10:09:01;;;;;;;9.00;2.55;;;;;;;4.88;98.10;101747.78;4944105;28;20136;-81
2022/10/28 10:11:43;;;;;;;3.88;1.50;;;;;;;5.39;98.05;101817.53;4938718;28;20123;-84
2022/10/28 10:14:19;;;;;;;9.07;2.03;;;;;;;4.83;98.17;101731.22;4948434;28;20045;-81
2022/10/28 10:16:55;;;;;;;4.63;1.58;;;;;;;4.80;98.42;101744.97;4959174;28;20048;-81
2022/10/28 10:19:26;;;;;;;7.43;2.75;;;;;;;4.97;98.61;101768.81;4953564;28;20085;-83
2022/10/28 10:21:57;;;;;;;6.70;2.22;;;;;;;5.32;99.19;101807.84;4966967;28;20228;-81
2022/10/28 10:24:33;;;;;;;6.55;2.13;;;;;;;5.18;99.37;101799.66;4964718;28;20092;-81
2022/10/28 10:27:18;;;;;;;8.88;2.28;;;;;;;5.24;99.44;101814.50;4960255;28;20080;-80
2022/10/28 10:29:53;;;;;;;12.75;2.22;;;;;;;4.87;100.00;101741.72;4956141;28;20044;-81
2022/10/28 10:32:28;;;;;;;8.63;1.38;;;;;;;5.21;100.00;101798.88;4947251;28;20697;-81
2022/10/28 10:35:15;;;;;;;4.82;1.20;;;;;;;4.86;100.00;101750.31;4962820;27;20051;-83
2022/10/28 10:37:48;;;;;;;3.58;1.33;;;;;;;4.63;99.96;101697.81;4951678;28;20089;-82
2022/10/28 10:40:24;;;;;;;9.25;3.35;;;;;;;4.65;99.56;101698.75;4955345;28;20112;-81
2022/10/28 10:42:55;;;;;;;4.35;1.77;;;;;;;5.13;99.54;101775.31;4953187;28;20111;-82
2022/10/28 10:45:53;;;;;;;6.57;1.90;;;;;;;5.43;99.92;101790.88;4950001;28;20119;-81
2022/10/28 10:48:24;;;;;;;3.88;1.60;;;;;;;5.08;99.60;101777.75;4946940;28;20112;-81
2022/10/28 10:50:58;;;;;;;5.80;2.25;;;;;;;4.96;100.00;101746.31;4959453;28;20113;-79
2022/10/28 10:53:32;;;;;;;8.60;2.78;;;;;;;5.28;100.00;101806.88;4957190;28;20036;-80
2022/10/28 10:56:24;;;;;;;4.45;1.63;;;;;;;5.23;100.00;101798.06;4961806;28;20035;-80
2022/10/28 10:59:24;;;;;;;6.43;2.13;;;;;;;5.06;100.00;101778.56;4960164;28;20261;-83
2022/10/28 11:01:59;;;;;;;8.38;2.10;;;;;;;4.98;100.00;101770.53;4952012;27;20044;-83
2022/10/28 11:04:35;;;;;;;8.73;2.13;;;;;;;5.05;100.00;101777.69;4962244;28;20074;-83
2022/10/28 11:07:06;;;;;;;10.35;2.20;;;;;;;4.71;100.00;101770.56;4943911;28;20051;-84
2022/10/28 11:09:50;;;;;;;4.82;2.00;;;;;;;4.56;100.00;101728.66;4948118;27;20056;-85
2022/10/28 11:16:24;;;;;;;8.82;2.28;;;;;;;4.80;100.00;101775.16;4907749;28;20204;-85
2022/10/28 11:19:18;;;;;;;8.18;1.92;;;;;;;4.76;100.00;101775.03;4933021;28;20067;-83
2022/10/28 11:22:02;;;;;;;4.82;1.75;;;;;;;4.52;100.00;101751.88;4924840;28;20082;-85
2022/10/28 11:24:56;;;;;;;6.60;1.70;;;;;;;4.50;100.00;101730.22;4921696;28;20046;-85
2022/10/28 11:27:40;;;;;;;3.47;1.60;;;;;;;4.83;100.00;101801.16;4930215;28;20117;-84
2022/10/28 11:30:16;;;;;;;5.30;1.20;;;;;;;4.13;100.00;101686.75;4913183;28;20053;-84
2022/10/28 11:33:06;;;;;;;5.35;1.60;;;;;;;4.69;100.00;101778.31;4926913;28;20043;-85
2022/10/28 11:36:12;;;;;;;12.85;4.47;;;;;;;4.30;100.00;101733.88;4927623;28;20058;-85
2022/10/28 11:39:01;;;;;;;12.57;4.47;;;;;;;3.92;100.00;101666.25;4927854;28;20153;-85
2022/10/28 11:41:41;;;;;;;9.60;3.67;;;;;;;4.44;100.00;101757.59;4927528;28;20137;-85
2022/10/28 11:44:25;;;;;;;15.07;3.03;;;;;;;4.36;100.00;101730.59;4931654;28;20070;-85
2022/10/28 11:47:19;;;;;;;14.70;4.28;;;;;;;3.98;100.00;101665.56;4928848;28;20044;-82
2022/10/28 11:50:27;;;;;;;13.30;5.15;;;;;;;4.31;100.00;101733.91;4917193;28;20288;-81
2022/10/28 11:53:22;;;;;;;13.90;2.15;;;;;;;4.54;100.00;101754.47;4902380;28;20123;-81
2022/10/28 11:56:03;;;;;;;12.07;3.80;;;;;;;4.29;100.00;101711.41;4924998;28;20070;-81
2022/10/28 11:58:54;;;;;;;11.93;3.50;;;;;;;4.10;100.00;101699.59;4928730;28;20044;-80
2022/10/28 12:01:46;;;;;;;7.32;2.45;;;;;;;4.28;100.00;101731.22;4924624;28;20348;-81
2022/10/28 12:04:31;;;;;;;6.28;1.90;;;;;;;3.85;100.00;101649.63;4925780;28;20138;-83
2022/10/28 12:07:26;;;;;;;11.02;2.40;;;;;;;3.95;100.00;101673.22;4926552;28;20425;-84
2022/10/28 12:10:32;;;;;;;9.80;3.22;;;;;;;4.56;100.00;101760.59;4929072;28;20054;-85
2022/10/28 12:13:23;;;;;;;9.57;2.40;;;;;;;4.03;100.00;101670.06;4934722;28;20057;-85
2022/10/28 12:16:00;;;;;;;7.55;2.47;;;;;;;4.50;100.00;101739.72;4933061;28;20044;-84
2022/10/28 12:18:57;;;;;;;9.38;1.58;;;;;;;3.88;100.00;101639.38;4919200;28;20055;-84
2022/10/28 12:21:33;;;;;;;14.15;2.60;;;;;;;3.91;100.00;101635.16;4925296;28;20115;-84
2022/10/28 12:24:13;;;;;;;;;;;;;;;4.63;100.00;101766.84;4928642;28;20056;-84
2022/10/28 12:26:52;;;;;;;10.57;2.55;;;;;;;4.38;100.00;101728.97;4930266;28;19925;-85
2022/10/28 12:29:27;;;;;;;11.27;2.17;;;;;;;4.23;100.00;101686.22;4934239;28;20076;-84
2022/10/28 12:32:04;;;;;;;11.48;2.58;;;;;;;4.58;100.00;101758.94;4940107;28;20055;-86
2022/10/28 12:34:42;;;;;;;9.32;2.00;;;;;;;4.31;100.00;101705.44;4927730;28;20036;-86
2022/10/28 12:37:19;;;;;;;8.65;2.20;;;;;;;4.06;100.00;101671.84;4936784;28;20057;-84
2022/10/28 12:40:05;;;;;;;11.15;2.33;;;;;;;4.53;100.00;101734.63;4927484;28;20192;-85
2022/10/28 12:42:41;;;;;;;13.13;3.13;;;;;;;4.54;100.00;101746.72;4933105;28;20115;-84
2022/10/28 12:45:15;;;;;;;10.55;2.30;;;;;;;3.96;100.00;101641.34;4946023;28;20048;-84
2022/10/28 12:47:54;;;;;;;14.95;2.60;;;;;;;4.48;100.00;101715.47;4936331;28;20047;-84
2022/10/28 12:50:32;;;;;;;11.25;2.60;;;;;;;4.03;100.00;101648.50;4936202;28;20097;-87
2022/10/28 12:53:22;;;;;;;9.68;2.22;;;;;;;4.23;100.00;101688.81;4942121;28;20384;-88
2022/10/28 12:55:58;;;;;;;11.20;2.13;;;;;;;4.25;100.00;101668.16;4930015;28;20069;-87
2022/10/28 12:58:36;;;;;;;6.63;2.13;;;;;;;4.53;100.00;101719.09;4943757;28;20225;-88
2022/10/28 13:01:11;;;;;;;10.40;2.10;;;;;;;4.43;100.00;101707.56;4912682;28;20090;-88
2022/10/28 13:03:42;;;;;;;9.38;2.20;;;;;;;3.98;100.00;101624.19;4946291;28;20290;-89
2022/10/28 13:06:33;;;;;;;22.10;5.00;;;;;;;4.21;100.00;101685.28;4936852;28;20062;-87
2022/10/28 13:09:43;;;;;;;19.48;4.70;;;;;;;4.25;100.00;101671.63;4928969;28;20055;-87
2022/10/28 13:12:31;;;;;;;7.97;3.53;;;;;;;4.04;100.00;101619.19;4881003;28;20048;-87
2022/10/28 13:15:31;;;;;;;15.52;3.20;;;;;;;4.66;100.00;101725.53;4918301;28;20048;-87
2022/10/28 13:18:23;;;;;;;21.20;4.13;;;;;;;4.73;100.00;101723.16;4939690;28;20044;-87
2022/10/28 13:21:04;;;;;;;8.73;2.90;;;;;;;4.60;100.00;101689.09;4922995;28;20046;-88
2022/10/28 13:23:44;;;;;;;11.90;2.55;;;;;;;4.59;100.00;101693.38;4929746;28;20111;-88
2022/10/28 13:26:25;;;;;;;12.63;2.40;;;;;;;4.78;100.00;101722.44;4929572;28;20052;-88
2022/10/28 13:28:58;;;;;;;11.57;2.78;;;;;;;4.69;100.00;101726.50;4929654;28;20051;-88
2022/10/28 13:31:40;;;;;;;11.48;2.25;;;;;;;4.12;100.00;101622.94;4940008;28;20062;-88
2022/10/28 13:34:16;;;;;;;10.63;2.00;;;;;;;4.18;100.00;101623.09;4928969;28;20052;-89
2022/10/28 13:36:56;;;;;;;11.00;2.53;;;;;;;4.57;100.00;101689.88;4916127;28;20075;-90
2022/10/28 13:39:43;;;;;;;7.45;2.28;;;;;;;4.24;100.00;101628.50;4916516;28;20209;-89
2022/10/28 13:42:46;;;;;;;10.55;2.00;;;;;;;4.71;100.00;101690.28;4910534;28;20499;-89
2022/10/28 13:45:49;;;;;;;9.57;1.75;;;;;;;4.84;100.00;101717.44;4905189;28;20051;-89
2022/10/28 13:48:54;;;;;;;8.57;2.42;;;;;;;4.83;100.00;101713.09;4927880;28;20056;-87
2022/10/28 13:51:34;;;;;;;9.45;2.70;;;;;;;4.86;100.00;101713.19;4905532;28;20332;-88
2022/10/28 13:54:18;;;;;;;7.50;2.20;;;;;;;4.46;100.00;101639.47;4913136;28;20048;-87
2022/10/28 13:56:52;;;;;;;9.95;2.42;;;;;;;4.08;100.00;101582.25;4917473;28;20068;-88
2022/10/28 13:59:29;;;;;;;12.07;3.42;;;;;;;4.87;100.00;101725.31;4934323;28;20084;-87